Time;durP1;ratioP1;P1;durP2;ratioP2;P2;SDS_P1;SDS_P2;PMS_P1;PMS_P2;Temp;Humidity;BMP_temperature;BMP_pressure;BME280_temperature;BME280_humidity;BME280_pressure;Samples;Min_cycle;Max_cycle;Signal;HPM_P1;HPM_P2
2022/09/01 00:00:07;;;;;;;749.13;696.83;;;;;;;21.90;78.19;99301.38;308426;32;1127;-82
2022/09/01 00:00:20;;;;;;;742.88;690.78;;;;;;;21.90;78.44;99304.03;306176;32;1394;-82
2022/09/01 00:00:31;;;;;;;745.50;693.42;;;;;;;21.90;78.42;99304.03;305205;32;892;-82
2022/09/01 00:00:48;;;;;;;744.63;692.53;;;;;;;21.89;78.31;99305.84;303332;32;2650;-82
2022/09/01 00:00:58;;;;;;;742.40;690.55;;;;;;;21.85;78.44;99298.28;298548;32;3052;-82
2022/09/01 00:01:17;;;;;;;743.63;691.73;;;;;;;21.86;78.19;99297.28;295321;32;3496;-82
2022/09/01 00:01:28;;;;;;;734.40;682.78;;;;;;;21.83;78.86;99300.25;295306;33;3653;-82
2022/09/01 00:01:41;;;;;;;726.15;674.92;;;;;;;21.82;78.55;99301.22;294473;33;2877;-80
2022/09/01 00:01:52;;;;;;;729.10;677.65;;;;;;;21.78;78.75;99298.00;292970;33;2343;-81
2022/09/01 00:02:07;;;;;;;735.53;683.78;;;;;;;21.80;78.89;99303.19;295698;33;1321;-81
2022/09/01 00:02:17;;;;;;;732.50;680.70;;;;;;;21.80;78.83;99300.53;299197;33;1333;-81
2022/09/01 00:02:28;;;;;;;731.40;679.77;;;;;;;21.80;78.77;99301.38;297166;33;2726;-81
2022/09/01 00:02:38;;;;;;;734.22;682.63;;;;;;;21.80;78.66;99296.03;290815;33;3887;-81
2022/09/01 00:02:50;;;;;;;738.47;686.63;;;;;;;21.79;78.86;99298.84;289619;34;832;-82
2022/09/01 00:03:00;;;;;;;734.35;682.53;;;;;;;21.80;79.03;99292.53;285645;34;1453;-81
2022/09/01 00:03:11;;;;;;;730.77;679.03;;;;;;;21.79;78.88;99297.03;285701;34;4567;-82
2022/09/01 00:03:25;;;;;;;730.00;678.22;;;;;;;21.79;79.06;99293.50;283703;34;4628;-82
2022/09/01 00:03:36;;;;;;;736.97;684.85;;;;;;;21.76;79.01;99294.63;280161;34;5128;-82
2022/09/01 00:03:47;;;;;;;740.60;688.25;;;;;;;21.78;79.21;99297.16;282988;35;1242;-82
2022/09/01 00:04:02;;;;;;;744.78;692.22;;;;;;;21.78;79.40;99291.84;283985;34;3615;-82
2022/09/01 00:04:14;;;;;;;750.40;697.70;;;;;;;21.78;79.12;99298.00;280775;35;3173;-82
2022/09/01 00:04:25;;;;;;;748.38;695.83;;;;;;;21.78;79.00;99297.16;280483;34;3454;-82
2022/09/01 00:04:37;;;;;;;736.47;684.45;;;;;;;21.77;79.30;99300.81;277200;35;4149;-82
2022/09/01 00:04:47;;;;;;;731.20;679.53;;;;;;;21.74;79.09;99299.25;271715;36;1382;-82
2022/09/01 00:04:58;;;;;;;731.57;679.93;;;;;;;21.75;79.35;99297.44;273548;35;4998;-82
2022/09/01 00:05:09;;;;;;;732.63;681.05;;;;;;;21.74;79.07;99296.59;273198;35;7544;-82
2022/09/01 00:05:19;;;;;;;736.83;685.30;;;;;;;21.73;79.26;99294.09;271651;36;1308;-82
2022/09/01 00:05:31;;;;;;;736.15;684.47;;;;;;;21.73;79.08;99294.91;267874;36;1416;-81
2022/09/01 00:05:43;;;;;;;741.60;689.72;;;;;;;21.74;79.11;99301.09;269788;36;6623;-81
2022/09/01 00:05:55;;;;;;;735.90;684.13;;;;;;;21.75;79.04;99292.97;268253;36;6738;-81
2022/09/01 00:06:09;;;;;;;735.40;683.53;;;;;;;21.78;79.34;99292.69;264874;36;6315;-83
2022/09/01 00:06:23;;;;;;;735.22;683.17;;;;;;;21.81;78.93;99295.06;264308;37;2446;-81
2022/09/01 00:06:34;;;;;;;729.20;677.22;;;;;;;21.82;78.77;99293.22;263458;37;1045;-81
2022/09/01 00:06:46;;;;;;;726.28;674.50;;;;;;;21.82;78.87;99298.56;260802;38;998;-81
2022/09/01 00:06:58;;;;;;;727.22;675.55;;;;;;;21.85;79.04;99290.28;258923;37;6936;-81
2022/09/01 00:08:50;;;;;;;674.77;625.28;;;;;;;21.85;78.27;99291.13;2502044;27;20460;-82
2022/09/01 00:09:03;;;;;;;747.40;695.75;;;;;;;21.87;78.59;99288.31;351434;28;1057;-82
2022/09/01 00:09:15;;;;;;;749.67;697.70;;;;;;;21.87;78.26;99288.31;350231;28;1101;-82
2022/09/01 00:09:26;;;;;;;750.13;698.17;;;;;;;21.86;78.74;99292.81;347330;28;1506;-82
2022/09/01 00:09:36;;;;;;;750.00;698.03;;;;;;;21.83;78.68;99286.94;347338;28;1311;-82
2022/09/01 00:09:47;;;;;;;754.95;702.83;;;;;;;21.83;78.64;99292.25;348411;28;1259;-82
2022/09/01 00:09:58;;;;;;;750.47;698.22;;;;;;;21.81;78.63;99288.88;350052;28;1254;-82
2022/09/01 00:10:08;;;;;;;749.20;697.00;;;;;;;21.80;78.89;99292.53;348753;28;1381;-83
2022/09/01 00:10:19;;;;;;;745.33;693.13;;;;;;;21.77;79.12;99284.81;348825;28;1292;-83
2022/09/01 00:10:29;;;;;;;743.35;691.20;;;;;;;21.77;78.70;99291.00;351395;28;1278;-83
2022/09/01 00:10:40;;;;;;;747.27;694.93;;;;;;;21.74;79.01;99283.28;350210;28;880;-83
2022/09/01 00:10:51;;;;;;;741.70;689.65;;;;;;;21.74;79.08;99283.28;351522;28;1226;-83
2022/09/01 00:11:01;;;;;;;737.85;686.08;;;;;;;21.71;78.93;99286.22;347642;28;1413;-83
2022/09/01 00:11:12;;;;;;;743.10;691.10;;;;;;;21.71;78.92;99286.22;349444;28;960;-83
2022/09/01 00:11:23;;;;;;;739.13;687.20;;;;;;;21.71;78.74;99288.06;347433;28;1195;-83
2022/09/01 00:11:33;;;;;;;740.78;688.80;;;;;;;21.73;79.01;99286.09;346179;28;1251;-83
2022/09/01 00:11:45;;;;;;;736.20;684.17;;;;;;;21.74;78.90;99293.09;344763;28;1203;-83
2022/09/01 00:11:56;;;;;;;725.38;673.50;;;;;;;21.73;78.60;99283.41;347116;28;1440;-83
2022/09/01 00:12:07;;;;;;;718.20;666.53;;;;;;;21.75;78.94;99287.63;348792;28;826;-83
2022/09/01 00:12:21;;;;;;;725.53;673.40;;;;;;;21.73;79.01;99283.41;346088;28;1258;-83
2022/09/01 00:12:31;;;;;;;739.33;687.10;;;;;;;21.76;78.92;99286.66;345341;28;1502;-82
2022/09/01 00:12:44;;;;;;;740.30;688.28;;;;;;;21.74;78.72;99282.44;345665;28;1412;-82
2022/09/01 00:12:54;;;;;;;734.90;682.85;;;;;;;21.75;78.51;99286.78;345812;28;1303;-82
2022/09/01 00:13:06;;;;;;;727.38;675.50;;;;;;;21.77;78.54;99285.66;344972;28;1244;-82
2022/09/01 00:13:17;;;;;;;723.45;671.70;;;;;;;21.77;78.60;99279.50;343097;28;1509;-82
2022/09/01 00:13:31;;;;;;;733.58;681.45;;;;;;;21.75;78.50;99276.97;345531;28;1170;-82
2022/09/01 00:13:42;;;;;;;741.55;689.22;;;;;;;21.79;78.96;99285.53;348696;28;891;-82
2022/09/01 00:13:53;;;;;;;735.83;683.97;;;;;;;21.77;78.84;99284.81;346225;28;1279;-82
2022/09/01 00:14:05;;;;;;;731.38;679.85;;;;;;;21.79;78.81;99282.84;343352;28;1231;-82
2022/09/01 00:14:16;;;;;;;721.72;670.47;;;;;;;21.80;78.55;99279.22;344277;28;1545;-82
2022/09/01 00:14:29;;;;;;;719.23;667.97;;;;;;;21.79;78.81;99283.69;342331;28;1351;-82
2022/09/01 00:14:39;;;;;;;717.55;666.25;;;;;;;21.81;78.70;99280.91;344427;28;1584;-82
2022/09/01 00:14:50;;;;;;;724.45;672.85;;;;;;;21.80;78.98;99285.38;343002;28;1255;-82
2022/09/01 00:15:00;;;;;;;721.43;669.83;;;;;;;21.79;78.87;99272.19;340741;28;2708;-82
2022/09/01 00:15:11;;;;;;;729.55;677.88;;;;;;;21.83;78.50;99278.94;342185;28;2951;-82
2022/09/01 00:15:21;;;;;;;728.60;676.80;;;;;;;21.83;78.95;99276.25;340847;29;1484;-82
2022/09/01 00:15:33;;;;;;;722.05;670.33;;;;;;;21.86;78.85;99284.81;340554;28;1640;-82
2022/09/01 00:15:44;;;;;;;713.33;661.80;;;;;;;21.83;78.66;99282.44;338187;29;1428;-82
2022/09/01 00:15:54;;;;;;;714.67;663.37;;;;;;;21.83;78.92;99279.78;336616;29;1252;-82
2022/09/01 00:16:05;;;;;;;718.90;667.30;;;;;;;21.82;78.85;99286.09;339188;29;1392;-82
2022/09/01 00:16:17;;;;;;;715.78;664.33;;;;;;;21.80;78.95;99276.53;336677;29;1282;-82
2022/09/01 00:16:28;;;;;;;721.25;669.38;;;;;;;21.81;78.93;99280.91;336851;29;1318;-82
2022/09/01 00:16:38;;;;;;;724.00;672.00;;;;;;;21.81;78.94;99281.72;334720;29;1306;-82
2022/09/01 00:16:49;;;;;;;729.23;677.00;;;;;;;21.80;78.82;99287.22;336711;29;1029;-81
2022/09/01 00:17:01;;;;;;;728.72;676.35;;;;;;;21.80;78.90;99273.88;336552;29;1265;-81
2022/09/01 00:17:12;;;;;;;712.88;661.08;;;;;;;21.80;78.84;99273.88;339979;28;1303;-82
2022/09/01 00:17:22;;;;;;;712.28;660.60;;;;;;;21.78;78.98;99276.69;337776;29;1450;-82
2022/09/01 00:17:33;;;;;;;711.47;659.50;;;;;;;21.78;79.14;99278.50;336635;29;1116;-82
2022/09/01 00:17:43;;;;;;;715.88;663.78;;;;;;;21.80;79.11;99281.88;335569;29;1293;-82
2022/09/01 00:17:54;;;;;;;716.80;664.87;;;;;;;21.79;78.74;99283.69;338317;29;1301;-81
2022/09/01 00:18:04;;;;;;;720.13;668.67;;;;;;;21.80;78.81;99282.72;336848;29;1207;-81
2022/09/01 00:18:14;;;;;;;723.73;672.07;;;;;;;21.81;78.63;99286.22;336972;29;1323;-81
2022/09/01 00:18:25;;;;;;;716.15;664.78;;;;;;;21.82;78.88;99279.91;338979;29;1437;-81
2022/09/01 00:18:36;;;;;;;711.67;660.53;;;;;;;21.81;78.75;99275.56;335112;29;1272;-81
2022/09/01 00:18:48;;;;;;;706.08;655.33;;;;;;;21.80;78.67;99284.53;331641;29;1367;-81
2022/09/01 00:18:59;;;;;;;706.95;656.28;;;;;;;21.79;78.93;99282.84;330882;29;1391;-81
2022/09/01 00:19:10;;;;;;;714.42;663.42;;;;;;;21.79;79.13;99280.19;331739;29;1669;-81
2022/09/01 00:19:21;;;;;;;715.85;664.67;;;;;;;21.76;78.90;99278.66;330003;29;1303;-81
2022/09/01 00:19:32;;;;;;;716.33;665.10;;;;;;;21.74;79.10;99285.09;325411;30;1383;-81
2022/09/01 00:19:43;;;;;;;713.85;662.60;;;;;;;21.74;78.96;99287.78;318734;30;1723;-81
2022/09/01 00:19:53;;;;;;;716.65;665.15;;;;;;;21.73;79.02;99289.59;318052;30;1306;-81
2022/09/01 00:20:04;;;;;;;719.65;668.03;;;;;;;21.74;79.04;99290.44;321969;30;1366;-81
2022/09/01 00:20:15;;;;;;;719.30;668.07;;;;;;;21.72;78.77;99285.25;323945;30;1214;-81
2022/09/01 00:20:26;;;;;;;716.83;665.63;;;;;;;21.73;78.93;99283.41;325896;30;1326;-81
2022/09/01 00:20:36;;;;;;;707.55;656.38;;;;;;;21.73;78.73;99286.09;321339;30;1478;-81
2022/09/01 00:20:46;;;;;;;704.83;653.27;;;;;;;21.73;79.20;99288.75;316609;31;1313;-81
2022/09/01 00:20:58;;;;;;;717.88;665.65;;;;;;;21.71;78.73;99280.06;315845;30;2153;-81
2022/09/01 00:21:09;;;;;;;724.38;672.13;;;;;;;21.72;78.92;99279.06;316344;31;2087;-81
2022/09/01 00:21:23;;;;;;;722.10;670.17;;;;;;;21.71;78.72;99285.38;314785;31;1474;-81
2022/09/01 00:21:37;;;;;;;710.10;658.97;;;;;;;21.72;78.83;99282.59;316306;31;909;-81
2022/09/01 00:21:47;;;;;;;708.47;657.33;;;;;;;21.74;79.03;99285.94;313761;31;1303;-81
2022/09/01 00:21:58;;;;;;;718.10;666.83;;;;;;;21.75;78.87;99284.13;310329;31;2070;-83
2022/09/01 00:22:09;;;;;;;713.85;662.80;;;;;;;21.73;78.90;99283.41;310416;31;1313;-82
2022/09/01 00:22:19;;;;;;;721.07;669.77;;;;;;;21.72;78.66;99287.91;309434;31;1366;-82
2022/09/01 00:22:32;;;;;;;722.72;671.25;;;;;;;21.72;79.31;99281.75;307046;32;1235;-83
2022/09/01 00:22:42;;;;;;;722.28;670.75;;;;;;;21.72;78.91;99287.06;306943;31;1980;-82
2022/09/01 00:22:54;;;;;;;721.27;669.63;;;;;;;21.72;78.89;99285.25;303398;32;2246;-82
2022/09/01 00:23:04;;;;;;;724.47;672.88;;;;;;;21.72;78.84;99277.25;302272;32;1412;-82
2022/09/01 00:23:15;;;;;;;728.10;676.17;;;;;;;21.72;79.21;99287.06;306303;32;2547;-83
2022/09/01 00:23:26;;;;;;;725.85;674.13;;;;;;;21.73;79.03;99284.25;305194;32;3509;-83
2022/09/01 00:23:36;;;;;;;726.63;674.70;;;;;;;21.73;79.17;99278.94;303486;32;3656;-83
2022/09/01 00:23:47;;;;;;;721.53;670.03;;;;;;;21.74;79.19;99288.59;302450;32;706;-83
2022/09/01 00:23:58;;;;;;;726.13;674.70;;;;;;;21.76;79.11;99283.97;304480;32;3335;-83
2022/09/01 00:24:10;;;;;;;723.92;672.63;;;;;;;21.74;78.84;99283.28;302415;32;2802;-83
2022/09/01 00:24:20;;;;;;;720.13;668.80;;;;;;;21.74;78.86;99285.09;301655;32;1993;-83
2022/09/01 00:24:31;;;;;;;714.13;662.70;;;;;;;21.75;79.06;99276.13;297720;33;1208;-82
2022/09/01 00:24:41;;;;;;;717.25;665.47;;;;;;;21.71;78.85;99280.06;298743;32;1960;-82
2022/09/01 00:24:51;;;;;;;723.17;671.13;;;;;;;21.72;79.22;99287.06;299197;32;2570;-82
2022/09/01 00:25:03;;;;;;;727.63;675.53;;;;;;;21.73;79.02;99286.09;299982;32;1417;-82
2022/09/01 00:25:13;;;;;;;729.55;676.80;;;;;;;21.71;79.33;99288.88;293304;33;3427;-81
2022/09/01 00:25:24;;;;;;;730.63;677.73;;;;;;;21.71;79.17;99280.06;290689;33;3674;-81
2022/09/01 00:25:34;;;;;;;726.80;673.90;;;;;;;21.71;79.45;99278.25;292825;33;1353;-82
2022/09/01 00:25:44;;;;;;;729.73;676.80;;;;;;;21.71;78.97;99274.72;294051;33;5250;-83
2022/09/01 00:25:55;;;;;;;723.97;671.40;;;;;;;21.70;79.11;99275.72;292256;33;4879;-82
2022/09/01 00:26:05;;;;;;;726.63;674.17;;;;;;;21.70;79.21;99278.38;290512;34;1154;-81
2022/09/01 00:26:17;;;;;;;722.95;670.90;;;;;;;21.66;79.54;99283.16;286810;34;1220;-81
2022/09/01 00:26:27;;;;;;;724.78;672.67;;;;;;;21.68;79.29;99285.66;287143;34;3618;-82
2022/09/01 00:26:38;;;;;;;727.20;674.80;;;;;;;21.67;79.25;99273.34;284044;34;3868;-82
2022/09/01 00:26:48;;;;;;;725.83;673.17;;;;;;;21.69;79.45;99282.03;281838;35;1462;-82
2022/09/01 00:26:59;;;;;;;725.03;672.42;;;;;;;21.68;79.21;99281.19;280797;34;4248;-82
2022/09/01 00:27:09;;;;;;;727.10;674.33;;;;;;;21.70;79.64;99278.38;279672;34;3798;-82
2022/09/01 00:27:20;;;;;;;728.42;675.67;;;;;;;21.72;79.04;99279.06;279951;35;1259;-82
2022/09/01 00:27:31;;;;;;;735.83;682.90;;;;;;;21.73;79.48;99278.09;276456;35;5499;-82
2022/09/01 00:27:41;;;;;;;736.75;684.28;;;;;;;21.74;79.54;99275.28;273656;35;5338;-82
2022/09/01 00:27:52;;;;;;;736.63;684.30;;;;;;;21.74;78.95;99275.28;271315;35;7350;-82
2022/09/01 00:28:03;;;;;;;732.13;680.35;;;;;;;21.74;79.31;99279.78;270345;36;1362;-82
2022/09/01 00:28:14;;;;;;;728.50;676.80;;;;;;;21.74;78.83;99280.63;269454;36;8161;-82
2022/09/01 00:28:25;;;;;;;725.83;674.03;;;;;;;21.77;79.10;99276.81;268829;36;7502;-82
2022/09/01 00:28:35;;;;;;;730.08;677.97;;;;;;;21.78;79.17;99279.34;268638;36;1480;-82
2022/09/01 00:28:46;;;;;;;733.80;681.60;;;;;;;21.76;79.25;99281.31;267453;37;1232;-82
2022/09/01 00:28:56;;;;;;;737.57;685.27;;;;;;;21.75;79.53;99274.31;269488;36;6543;-82
2022/09/01 00:29:07;;;;;;;724.42;672.60;;;;;;;21.78;78.94;99273.19;265568;36;5642;-82
2022/09/01 00:29:17;;;;;;;728.67;676.67;;;;;;;21.77;79.01;99279.50;260448;38;1238;-82
2022/09/01 00:30:59;;;;;;;690.81;641.17;;;;;;;21.72;79.44;99279.06;2501963;27;20267;-83
2022/09/01 00:31:10;;;;;;;744.58;693.20;;;;;;;21.70;79.72;99284.53;351274;28;1269;-82
2022/09/01 00:31:21;;;;;;;756.33;704.47;;;;;;;21.70;79.75;99281.03;348749;28;1180;-82
2022/09/01 00:31:32;;;;;;;754.45;702.38;;;;;;;21.70;79.83;99283.69;348256;28;1209;-82
2022/09/01 00:31:42;;;;;;;752.90;700.80;;;;;;;21.69;79.66;99282.03;350754;28;1434;-82
2022/09/01 00:31:53;;;;;;;751.60;699.30;;;;;;;21.71;79.44;99282.72;348942;28;1440;-83
2022/09/01 00:32:03;;;;;;;746.85;694.70;;;;;;;21.68;79.73;99275.00;348125;28;1463;-83
2022/09/01 00:32:14;;;;;;;743.13;691.07;;;;;;;21.71;80.01;99286.22;347382;28;1296;-82
2022/09/01 00:32:25;;;;;;;744.70;692.70;;;;;;;21.71;79.63;99286.22;346128;28;935;-82
2022/09/01 00:32:36;;;;;;;746.97;695.05;;;;;;;21.68;80.01;99281.19;347531;28;1271;-82
2022/09/01 00:32:46;;;;;;;750.90;698.87;;;;;;;21.69;79.76;99282.03;348848;28;1179;-82
2022/09/01 00:32:57;;;;;;;746.38;694.65;;;;;;;21.68;79.97;99291.00;348842;28;887;-82
2022/09/01 00:33:07;;;;;;;743.30;691.47;;;;;;;21.67;80.39;99283.97;348708;28;1291;-82
2022/09/01 00:33:18;;;;;;;742.38;690.85;;;;;;;21.66;80.00;99287.66;348872;28;2193;-82
2022/09/01 00:33:28;;;;;;;737.00;685.57;;;;;;;21.61;79.76;99285.41;347239;28;2850;-82
2022/09/01 00:33:39;;;;;;;733.63;682.08;;;;;;;21.64;80.53;99286.97;347374;28;1758;-82
2022/09/01 00:33:50;;;;;;;738.50;686.60;;;;;;;21.61;80.46;99287.25;348576;28;1103;-82
2022/09/01 00:34:00;;;;;;;744.80;692.60;;;;;;;21.61;80.33;99289.91;348628;28;1194;-82
2022/09/01 00:34:11;;;;;;;747.67;695.70;;;;;;;21.62;80.08;99291.59;348881;28;1226;-82
2022/09/01 00:34:21;;;;;;;750.33;698.33;;;;;;;21.61;80.26;99284.56;347546;28;1252;-82
2022/09/01 00:34:32;;;;;;;748.40;696.55;;;;;;;21.61;79.95;99289.91;348863;28;900;-82
2022/09/01 00:34:42;;;;;;;755.17;703.10;;;;;;;21.61;79.63;99289.91;348919;28;1294;-82
2022/09/01 00:34:53;;;;;;;752.33;700.30;;;;;;;21.58;79.69;99291.88;346005;28;1069;-82
2022/09/01 00:35:04;;;;;;;757.80;705.67;;;;;;;21.58;80.02;99291.03;346261;28;1200;-82
2022/09/01 00:35:16;;;;;;;756.20;704.22;;;;;;;21.56;79.88;99296.50;343810;28;1241;-82
2022/09/01 00:35:26;;;;;;;760.08;708.08;;;;;;;21.55;79.52;99292.16;347024;28;1449;-82
2022/09/01 00:35:36;;;;;;;759.90;707.65;;;;;;;21.55;79.94;99289.47;344893;28;1000;-82
2022/09/01 00:35:47;;;;;;;760.33;708.03;;;;;;;21.57;79.58;99292.84;343256;28;1332;-82
2022/09/01 00:35:57;;;;;;;754.70;702.55;;;;;;;21.56;79.50;99291.16;344361;28;1287;-82
2022/09/01 00:36:08;;;;;;;749.70;697.67;;;;;;;21.57;79.54;99294.66;344742;28;1236;-82
2022/09/01 00:36:19;;;;;;;753.78;701.65;;;;;;;21.57;79.74;99290.19;344838;28;1324;-82
2022/09/01 00:36:29;;;;;;;753.15;700.75;;;;;;;21.55;79.70;99288.63;347239;28;1333;-82
2022/09/01 00:36:40;;;;;;;754.60;702.27;;;;;;;21.57;79.44;99295.50;343276;28;1205;-82
2022/09/01 00:36:50;;;;;;;751.65;699.42;;;;;;;21.58;79.94;99291.88;344730;28;1198;-82
2022/09/01 00:37:01;;;;;;;758.47;706.30;;;;;;;21.59;79.73;99287.38;342630;28;1354;-82
2022/09/01 00:37:11;;;;;;;752.90;700.80;;;;;;;21.61;79.50;99295.22;343271;28;1323;-82
2022/09/01 00:37:21;;;;;;;752.80;700.87;;;;;;;21.61;79.59;99289.91;343344;28;1325;-82
2022/09/01 00:37:32;;;;;;;747.53;695.90;;;;;;;21.60;79.39;99294.38;345607;28;1375;-82
2022/09/01 00:37:42;;;;;;;749.97;698.42;;;;;;;21.60;80.02;99298.88;341908;28;1350;-82
2022/09/01 00:37:53;;;;;;;744.40;692.77;;;;;;;21.59;79.93;99298.03;343210;28;1173;-82
2022/09/01 00:38:04;;;;;;;740.47;688.90;;;;;;;21.57;79.78;99290.19;343507;28;901;-82
2022/09/01 00:38:14;;;;;;;737.72;686.05;;;;;;;21.60;79.69;99293.53;343212;28;1285;-82
2022/09/01 00:38:25;;;;;;;739.15;687.38;;;;;;;21.60;79.31;99288.22;339165;29;1075;-82
2022/09/01 00:38:36;;;;;;;746.17;693.77;;;;;;;21.62;79.23;99294.25;339212;28;1178;-82
2022/09/01 00:38:47;;;;;;;742.25;690.17;;;;;;;21.62;79.62;99292.44;341814;28;1209;-82
2022/09/01 00:38:57;;;;;;;744.33;692.17;;;;;;;21.62;79.43;99291.59;339465;29;1240;-82
2022/09/01 00:39:08;;;;;;;734.43;682.83;;;;;;;21.61;79.49;99289.91;340232;28;1273;-82
2022/09/01 00:39:18;;;;;;;734.53;682.95;;;;;;;21.62;79.68;99292.44;339136;29;1480;-82
2022/09/01 00:39:29;;;;;;;734.70;682.90;;;;;;;21.63;79.41;99293.28;336829;29;1214;-82
2022/09/01 00:39:39;;;;;;;742.80;690.55;;;;;;;21.61;79.34;99296.06;339366;29;1243;-82
2022/09/01 00:39:50;;;;;;;739.08;686.88;;;;;;;21.63;79.31;99301.25;336799;29;1923;-82
2022/09/01 00:40:00;;;;;;;739.40;687.23;;;;;;;21.62;79.41;99297.75;335415;29;1552;-82
2022/09/01 00:40:12;;;;;;;734.17;682.25;;;;;;;21.58;79.35;99283.88;338860;29;1068;-81
2022/09/01 00:40:22;;;;;;;737.65;685.75;;;;;;;21.60;79.36;99294.38;342471;28;1332;-81
2022/09/01 00:40:33;;;;;;;737.47;685.50;;;;;;;21.58;79.21;99297.19;339385;29;1290;-81
2022/09/01 00:40:43;;;;;;;745.23;693.07;;;;;;;21.59;79.13;99292.72;334104;29;1242;-81
2022/09/01 00:40:53;;;;;;;744.63;692.80;;;;;;;21.58;79.35;99296.34;334521;29;1806;-82
2022/09/01 00:41:05;;;;;;;741.33;689.73;;;;;;;21.58;79.44;99299.84;333905;29;1857;-81
2022/09/01 00:41:23;;;;;;;741.00;689.42;;;;;;;21.60;79.11;99298.88;330554;29;883;-82
2022/09/01 00:41:37;;;;;;;746.03;694.15;;;;;;;21.59;78.84;99295.38;331484;29;1611;-82
2022/09/01 00:41:49;;;;;;;745.33;693.63;;;;;;;21.59;78.85;99295.38;332648;29;1447;-82
2022/09/01 00:41:59;;;;;;;745.53;693.80;;;;;;;21.57;78.63;99290.19;327227;30;1516;-82
2022/09/01 00:42:10;;;;;;;737.67;686.07;;;;;;;21.60;78.92;99298.88;331358;29;1616;-82
2022/09/01 00:42:20;;;;;;;738.88;687.42;;;;;;;21.58;78.89;99294.53;329800;29;1505;-82
2022/09/01 00:42:31;;;;;;;739.03;687.60;;;;;;;21.59;78.61;99292.72;328589;29;2944;-82
2022/09/01 00:42:44;;;;;;;738.60;687.03;;;;;;;21.57;78.73;99295.50;330081;29;3007;-82
2022/09/01 00:42:54;;;;;;;743.35;691.65;;;;;;;21.56;78.57;99288.50;333973;29;1796;-82
2022/09/01 00:43:21;;;;;;;750.70;698.67;;;;;;;21.55;78.62;99296.63;327777;29;2193;-82
2022/09/01 00:43:35;;;;;;;739.70;688.67;;;;;;;21.54;78.38;99295.78;321551;30;1264;-82
2022/09/01 00:43:56;;;;;;;732.67;681.47;;;;;;;21.53;78.68;99293.25;322927;30;1429;-82
2022/09/01 00:44:14;;;;;;;746.42;694.78;;;;;;;21.54;78.44;99297.59;322927;30;2151;-82
2022/09/01 00:44:26;;;;;;;758.55;706.67;;;;;;;21.53;77.96;99294.09;317934;30;1842;-82
2022/09/01 00:44:37;;;;;;;757.95;706.20;;;;;;;21.54;78.28;99293.13;314907;31;1304;-82
2022/09/01 00:44:47;;;;;;;757.03;705.05;;;;;;;21.53;78.12;99295.94;318267;31;1306;-82
2022/09/01 00:44:58;;;;;;;751.13;699.27;;;;;;;21.56;77.92;99288.50;318591;30;1964;-82
2022/09/01 00:45:09;;;;;;;752.80;700.75;;;;;;;21.56;77.95;99293.81;315167;31;2559;-82
2022/09/01 00:45:20;;;;;;;755.42;703.17;;;;;;;21.55;77.68;99292.16;312235;30;3258;-82
2022/09/01 00:45:31;;;;;;;763.50;710.97;;;;;;;21.54;78.13;99290.47;316775;30;1333;-82
2022/09/01 00:45:41;;;;;;;765.55;712.75;;;;;;;21.54;77.90;99289.63;309425;31;3384;-83
2022/09/01 00:45:52;;;;;;;763.90;711.40;;;;;;;21.53;77.83;99285.28;308842;31;3099;-83
2022/09/01 00:46:09;;;;;;;768.37;715.57;;;;;;;21.54;77.52;99289.63;311531;31;1339;-83
2022/09/01 00:46:31;;;;;;;775.15;722.67;;;;;;;21.54;77.94;99290.47;307578;32;3124;-82
2022/09/01 00:46:43;;;;;;;771.63;719.65;;;;;;;21.54;77.65;99290.47;309470;31;2515;-82
2022/09/01 00:46:55;;;;;;;769.33;717.30;;;;;;;21.49;77.95;99279.38;307340;31;1764;-82
2022/09/01 00:47:05;;;;;;;775.53;722.95;;;;;;;21.53;77.61;99295.94;305978;31;3018;-82
2022/09/01 00:47:16;;;;;;;772.47;719.70;;;;;;;21.53;77.65;99293.25;304072;32;1246;-82
2022/09/01 00:47:26;;;;;;;774.57;721.37;;;;;;;21.50;77.64;99289.06;303244;31;4323;-82
2022/09/01 00:47:37;;;;;;;766.75;713.90;;;;;;;21.52;77.77;99291.59;302778;32;4493;-83
2022/09/01 00:47:47;;;;;;;774.63;721.70;;;;;;;21.49;77.88;99290.03;303248;32;1228;-82
2022/09/01 00:47:58;;;;;;;782.38;728.92;;;;;;;21.52;77.56;99287.09;297584;32;4965;-83
2022/09/01 00:48:08;;;;;;;786.07;732.47;;;;;;;21.49;77.75;99292.69;295584;32;4068;-81
2022/09/01 00:48:20;;;;;;;779.95;726.42;;;;;;;21.49;77.71;99282.06;298291;32;3345;-81
2022/09/01 00:48:31;;;;;;;777.47;724.63;;;;;;;21.44;78.15;99289.63;301379;32;1321;-82
2022/09/01 00:48:41;;;;;;;778.63;725.70;;;;;;;21.43;78.34;99285.28;298945;32;4100;-82
2022/09/01 00:48:59;;;;;;;782.57;729.47;;;;;;;21.43;78.19;99289.75;298823;32;3767;-82
2022/09/01 00:49:12;;;;;;;789.78;736.97;;;;;;;21.43;78.19;99281.75;299950;32;3518;-82
2022/09/01 00:49:27;;;;;;;789.38;736.88;;;;;;;21.43;78.12;99279.94;297324;32;4347;-82
2022/09/01 00:49:42;;;;;;;786.63;733.95;;;;;;;21.41;78.52;99283.72;295310;33;6330;-82
2022/09/01 00:49:52;;;;;;;792.67;740.00;;;;;;;21.40;78.02;99282.03;290892;33;6899;-82
2022/09/01 00:50:05;;;;;;;796.27;743.23;;;;;;;21.40;78.52;99290.88;288386;34;1207;-82
2022/09/01 00:50:16;;;;;;;794.03;740.65;;;;;;;21.39;78.02;99283.84;289553;34;871;-82
2022/09/01 00:50:27;;;;;;;797.35;743.83;;;;;;;21.36;78.12;99292.13;287270;33;5835;-82
2022/09/01 00:50:37;;;;;;;801.00;747.60;;;;;;;21.35;78.41;99285.13;284142;34;5935;-82
2022/09/01 00:50:48;;;;;;;798.67;745.30;;;;;;;21.33;78.42;99288.91;283981;34;1619;-82
2022/09/01 00:50:58;;;;;;;792.92;739.50;;;;;;;21.29;78.93;99285.66;279969;34;5256;-82
2022/09/01 00:51:09;;;;;;;787.93;734.57;;;;;;;21.29;78.40;99288.34;279995;34;5027;-82
2022/09/01 00:53:06;;;;;;;741.97;690.77;;;;;;;21.35;78.18;99289.59;2492391;27;20270;-82
2022/09/01 00:53:16;;;;;;;789.72;737.25;;;;;;;21.34;78.46;99286.09;351523;28;1303;-82
2022/09/01 00:53:26;;;;;;;791.83;739.27;;;;;;;21.33;78.50;99287.06;347238;28;1304;-82
2022/09/01 00:53:37;;;;;;;795.45;742.80;;;;;;;21.33;78.73;99287.06;350770;28;1223;-82
2022/09/01 00:53:48;;;;;;;799.33;746.57;;;;;;;21.31;78.48;99282.88;351561;28;1296;-82
2022/09/01 00:54:00;;;;;;;795.35;742.80;;;;;;;21.31;78.80;99283.72;348861;28;1411;-82
2022/09/01 00:54:12;;;;;;;796.08;743.53;;;;;;;21.31;78.75;99289.03;347325;28;907;-83
2022/09/01 00:54:25;;;;;;;792.63;740.22;;;;;;;21.32;78.97;99289.88;348502;28;1516;-81
2022/09/01 00:54:39;;;;;;;787.80;735.30;;;;;;;21.29;78.67;99279.50;348102;28;1392;-81
2022/09/01 00:54:52;;;;;;;787.25;734.55;;;;;;;21.28;78.67;99283.97;345785;28;856;-81
2022/09/01 00:55:18;;;;;;;790.90;737.90;;;;;;;21.31;78.60;99283.72;345854;28;1403;-82
2022/09/01 00:55:30;;;;;;;787.13;734.78;;;;;;;21.30;79.04;99279.38;345063;28;1287;-82
2022/09/01 00:55:40;;;;;;;796.03;743.25;;;;;;;21.28;79.03;99286.66;343211;28;1363;-82
2022/09/01 00:55:51;;;;;;;794.63;741.77;;;;;;;21.29;79.13;99284.81;345246;28;1327;-82
2022/09/01 00:56:02;;;;;;;803.20;750.05;;;;;;;21.27;79.08;99282.31;343386;28;891;-82
2022/09/01 00:56:12;;;;;;;803.88;750.97;;;;;;;21.25;79.17;99284.25;343687;28;1304;-82
2022/09/01 00:56:23;;;;;;;806.53;753.43;;;;;;;21.24;79.39;99278.09;345205;28;1158;-82
2022/09/01 00:56:33;;;;;;;807.22;754.08;;;;;;;21.23;79.14;99279.06;347168;28;1376;-81
2022/09/01 00:56:44;;;;;;;803.93;750.23;;;;;;;21.24;79.28;99290.56;343987;28;1228;-81
2022/09/01 00:56:54;;;;;;;807.13;753.13;;;;;;;21.23;79.58;99280.91;343401;28;1344;-82
2022/09/01 00:57:05;;;;;;;813.60;759.27;;;;;;;21.24;79.53;99282.56;344494;28;1220;-83
2022/09/01 00:57:15;;;;;;;813.08;758.88;;;;;;;21.24;79.43;99290.56;344271;28;1258;-82